サルタ の空港の天気 - METARとTAF

サルタ空港 ( SASA / SLA ) - アルゼンチン サルタ州、Salta
飛行場実況気象(Metar)
観測時間09/25 00:00 ART (09/25 03:00 UTC)
風向・風速南東 2m/s
視程10km以上
天気現象
全天の4割程度の雲 雲底高度 610m
全天の8割程度の雲 雲底高度 3050m
気温18℃
湿度83%
気圧1016hPa
METARSASA 250300Z 14004KT 9999 SCT020 BKN100 18/15 Q1016
過去の天気等 Google飛行場航空写真 Wunderground天気予報

過去48時間のMETAR

飛行場予報(TAF)
発表時間: 9/24 20:00 ART (9/24 23:00 UTC)
予報対象時間: 24日21時 ART ~ 25日21時 ART
風向・風速北東 3m/s
視程10km以上
全天の4割程度の雲 雲底高度 610m
全天の8割程度の雲 雲底高度 1830m
24日22時 ART ~ 25日2時 ART に一時的に
風向・風速東 8m/s
視程5000m
天気現象雷雨
全天の4割程度の雲 雲底高度 910m
少しの積乱雲 雲底高度 1070m
TAF SASA 242300Z 2500/2524 05005KT 9999 SCT020 BKN060 TX32/2518Z TN19/2510Z
TEMPO 2501/2505 09015KT 5000 TSRA SCT030 FEW035CB